Time;durP1;ratioP1;P1;durP2;ratioP2;P2;SDS_P1;SDS_P2;PMS_P1;PMS_P2;Temp;Humidity;BMP_temperature;BMP_pressure;BME280_temperature;BME280_humidity;BME280_pressure;Samples;Min_cycle;Max_cycle;Signal;HPM_P1;HPM_P2
2022/09/29 00:02:12;;;;;;;5.60;4.90;;;8.50;1.00;;;;;;4974406;28;20943;-58
2022/09/29 00:04:38;;;;;;;5.57;4.03;;;8.40;1.00;;;;;;4995260;28;20648;-58
2022/09/29 00:07:03;;;;;;;4.93;4.43;;;8.40;1.00;;;;;;4993248;28;20772;-58
2022/09/29 00:09:29;;;;;;;4.17;3.77;;;8.30;1.00;;;;;;4997958;28;20185;-58
2022/09/29 00:11:56;;;;;;;5.43;4.50;;;8.30;1.00;;;;;;4991497;28;20605;-58
2022/09/29 00:14:22;;;;;;;4.83;4.20;;;8.30;1.00;;;;;;4995309;28;20489;-58
2022/09/29 00:16:48;;;;;;;7.00;4.80;;;8.30;1.00;;;;;;5003752;28;20519;-58
2022/09/29 00:19:14;;;;;;;4.60;4.20;;;8.30;1.00;;;;;;4994251;28;20452;-57
2022/09/29 00:21:39;;;;;;;6.10;4.53;;;8.40;1.00;;;;;;4996792;28;20194;-59
2022/09/29 00:24:05;;;;;;;6.07;5.30;;;8.40;1.00;;;;;;4996797;28;20443;-58
2022/09/29 00:26:31;;;;;;;5.70;4.97;;;8.30;1.00;;;;;;4998492;28;20287;-58
2022/09/29 00:28:57;;;;;;;5.43;4.60;;;8.20;1.00;;;;;;5002682;28;20285;-58
2022/09/29 00:31:32;;;;;;;4.40;3.90;;;8.30;1.00;;;;;;4997998;28;20521;-57
2022/09/29 00:33:58;;;;;;;4.40;4.00;;;8.20;1.00;;;;;;4998278;28;20456;-58
2022/09/29 00:36:24;;;;;;;4.00;3.70;;;8.20;1.00;;;;;;4999379;28;20483;-58
2022/09/29 00:38:53;;;;;;;4.73;4.33;;;8.20;1.00;;;;;;4995204;28;20202;-57
2022/09/29 00:41:23;;;;;;;4.47;4.07;;;8.20;1.00;;;;;;4998090;28;20493;-57
2022/09/29 00:43:59;;;;;;;4.70;4.30;;;8.20;1.00;;;;;;4993897;28;20561;-57
2022/09/29 00:46:43;;;;;;;4.47;4.07;;;8.20;1.00;;;;;;4997949;28;20475;-57
2022/09/29 00:49:22;;;;;;;4.53;4.13;;;8.20;1.00;;;;;;4995105;28;20449;-58
2022/09/29 00:52:03;;;;;;;4.03;3.70;;;8.10;1.00;;;;;;4993954;28;20455;-57
2022/09/29 00:54:37;;;;;;;4.57;4.17;;;8.20;1.00;;;;;;5001105;28;20540;-58
2022/09/29 00:57:07;;;;;;;4.13;3.73;;;8.20;1.00;;;;;;4992621;28;20573;-58
2022/09/29 00:59:45;;;;;;;5.70;4.63;;;8.10;1.00;;;;;;4996981;28;20803;-58
2022/09/29 01:02:12;;;;;;;6.60;4.67;;;8.20;1.00;;;;;;4993739;28;20445;-58
2022/09/29 01:04:38;;;;;;;4.20;3.80;;;8.10;1.00;;;;;;5003049;28;20965;-58
2022/09/29 01:07:03;;;;;;;4.20;3.83;;;8.00;1.00;;;;;;4999824;28;20467;-57
2022/09/29 01:09:33;;;;;;;5.00;4.43;;;8.00;1.00;;;;;;5002730;28;20451;-57
2022/09/29 01:12:00;;;;;;;7.20;4.30;;;8.10;1.00;;;;;;4995995;28;20209;-57
2022/09/29 01:14:28;;;;;;;4.63;4.10;;;8.00;1.00;;;;;;4992939;28;20449;-58
2022/09/29 01:16:54;;;;;;;4.47;4.03;;;8.00;1.00;;;;;;4998699;28;20476;-57
2022/09/29 01:19:32;;;;;;;4.23;3.83;;;8.00;1.00;;;;;;4998250;28;20966;-58
2022/09/29 01:22:12;;;;;;;4.50;3.90;;;8.00;1.00;;;;;;5002840;28;20208;-57
2022/09/29 01:24:50;;;;;;;4.53;4.10;;;8.00;1.00;;;;;;5001976;28;20838;-57
2022/09/29 01:27:39;;;;;;;4.30;3.90;;;7.90;1.00;;;;;;4992889;28;20966;-57
2022/09/29 01:30:11;;;;;;;6.80;3.80;;;8.00;1.00;;;;;;5001159;28;20440;-57
2022/09/29 01:32:37;;;;;;;4.87;4.37;;;7.90;1.00;;;;;;4990824;28;20533;-58
2022/09/29 01:35:39;;;;;;;4.90;3.67;;;7.80;1.00;;;;;;4998223;28;20526;-58
2022/09/29 01:38:42;;;;;;;4.27;3.50;;;7.90;1.00;;;;;;4999585;28;20567;-58
2022/09/29 01:41:20;;;;;;;4.67;4.20;;;7.80;1.00;;;;;;4939399;28;20460;-57
2022/09/29 01:44:04;;;;;;;4.20;3.80;;;7.80;1.00;;;;;;4989087;28;20540;-57
2022/09/29 01:46:35;;;;;;;9.30;4.90;;;7.80;1.00;;;;;;5001629;28;20499;-58
2022/09/29 01:49:03;;;;;;;5.20;4.10;;;7.70;1.00;;;;;;4979916;28;20457;-58
2022/09/29 01:51:39;;;;;;;3.70;3.27;;;7.70;1.00;;;;;;4996024;28;20799;-57
2022/09/29 01:54:13;;;;;;;4.87;3.43;;;7.70;1.00;;;;;;4995202;28;20427;-57
2022/09/29 01:56:55;;;;;;;6.43;3.70;;;7.70;1.00;;;;;;4996640;28;20540;-57
2022/09/29 01:59:43;;;;;;;4.60;3.93;;;7.70;1.00;;;;;;5002358;28;20460;-58
2022/09/29 02:02:14;;;;;;;4.20;3.80;;;7.70;1.00;;;;;;4998149;28;20448;-58
2022/09/29 02:04:53;;;;;;;3.03;2.83;;;7.60;1.00;;;;;;4999431;28;21029;-58
2022/09/29 02:07:30;;;;;;;3.23;2.93;;;7.60;1.00;;;;;;5002920;28;20495;-57
2022/09/29 02:10:08;;;;;;;3.17;2.97;;;7.50;1.00;;;;;;5003887;28;20468;-58
2022/09/29 02:12:37;;;;;;;3.73;3.37;;;7.50;1.00;;;;;;4999647;28;20462;-57
2022/09/29 02:15:08;;;;;;;4.67;4.17;;;7.40;1.00;;;;;;5004778;28;20455;-59
2022/09/29 02:17:38;;;;;;;4.63;4.00;;;7.50;1.00;;;;;;5006946;28;20441;-57
2022/09/29 02:20:04;;;;;;;3.53;3.20;;;7.50;1.00;;;;;;4996337;28;20451;-57
2022/09/29 02:22:31;;;;;;;4.40;3.30;;;7.50;1.00;;;;;;4999575;28;20938;-57
2022/09/29 02:24:58;;;;;;;3.43;3.13;;;7.50;1.00;;;;;;5006337;28;20473;-57
2022/09/29 02:27:27;;;;;;;4.60;3.37;;;7.50;1.00;;;;;;4995297;28;20476;-58
2022/09/29 02:29:54;;;;;;;3.77;3.43;;;7.80;1.00;;;;;;4995358;28;20506;-58
2022/09/29 02:32:20;;;;;;;4.47;3.50;;;7.50;1.00;;;;;;5003401;28;20524;-57
2022/09/29 02:34:49;;;;;;;5.70;3.70;;;7.50;1.00;;;;;;4996702;28;20453;-57
2022/09/29 02:37:17;;;;;;;3.57;3.27;;;7.50;1.00;;;;;;5006586;28;20213;-58
2022/09/29 02:39:43;;;;;;;3.20;2.90;;;7.50;1.00;;;;;;5004234;28;20463;-59
2022/09/29 02:42:18;;;;;;;3.63;3.33;;;7.50;1.00;;;;;;4997787;28;20449;-58
2022/09/29 02:45:08;;;;;;;3.30;3.00;;;7.40;1.00;;;;;;4997263;28;20316;-57
2022/09/29 02:47:55;;;;;;;4.00;3.40;;;7.40;1.00;;;;;;4999121;28;20502;-57
2022/09/29 02:50:32;;;;;;;6.37;4.23;;;7.50;1.00;;;;;;4997279;28;20794;-58
2022/09/29 02:53:03;;;;;;;3.53;3.20;;;7.50;1.00;;;;;;5002366;28;20414;-57
2022/09/29 02:55:44;;;;;;;3.13;2.93;;;7.60;1.00;;;;;;5000495;28;20875;-58
2022/09/29 02:58:24;;;;;;;4.10;3.50;;;7.70;1.00;;;;;;5001160;28;20444;-57
2022/09/29 03:00:51;;;;;;;4.27;3.87;;;7.70;1.00;;;;;;4991032;28;20449;-59
2022/09/29 03:03:17;;;;;;;3.70;3.40;;;7.70;1.00;;;;;;4995264;28;20601;-60
2022/09/29 03:05:43;;;;;;;4.43;3.70;;;7.80;1.00;;;;;;4992449;28;20524;-60
2022/09/29 03:08:08;;;;;;;4.37;3.70;;;7.90;1.00;;;;;;4993200;28;20285;-61
2022/09/29 03:10:34;;;;;;;3.33;2.80;;;8.00;1.00;;;;;;4992119;28;20184;-60
2022/09/29 03:12:59;;;;;;;5.13;3.83;;;8.00;1.00;;;;;;4975411;28;20171;-59
2022/09/29 03:15:25;;;;;;;3.63;3.33;;;8.10;1.00;;;;;;4991947;28;20209;-60
2022/09/29 03:17:55;;;;;;;3.37;2.93;;;8.10;1.00;;;;;;4991193;28;20419;-60
2022/09/29 03:20:21;;;;;;;3.80;3.40;;;8.20;1.00;;;;;;4992745;28;20190;-60
2022/09/29 03:22:46;;;;;;;4.07;3.30;;;8.30;1.00;;;;;;4999651;28;20430;-58
2022/09/29 03:25:13;;;;;;;3.10;2.80;;;8.20;1.00;;;;;;4992697;28;20192;-60
2022/09/29 03:27:39;;;;;;;3.87;3.50;;;8.30;1.00;;;;;;4992276;28;20213;-59
2022/09/29 03:30:05;;;;;;;3.73;3.33;;;8.30;1.00;;;;;;4991769;28;20438;-60
2022/09/29 03:32:31;;;;;;;4.03;3.63;;;8.30;1.00;;;;;;4991236;28;20197;-59
2022/09/29 03:34:56;;;;;;;4.80;3.57;;;8.30;1.00;;;;;;4992256;28;20499;-60
2022/09/29 03:37:22;;;;;;;3.77;3.47;;;8.40;1.00;;;;;;4999232;28;20190;-59
2022/09/29 03:39:48;;;;;;;3.70;3.40;;;8.40;1.00;;;;;;4992149;28;20575;-60
2022/09/29 03:42:13;;;;;;;3.83;3.53;;;8.30;1.00;;;;;;4990526;28;20194;-60
2022/09/29 03:44:39;;;;;;;4.87;3.93;;;8.30;1.00;;;;;;4992013;28;20312;-59
2022/09/29 03:47:04;;;;;;;4.60;3.10;;;8.40;1.00;;;;;;4991183;28;20709;-60
2022/09/29 03:49:30;;;;;;;3.83;3.43;;;8.40;1.00;;;;;;4993243;28;20237;-59
2022/09/29 03:51:55;;;;;;;5.07;3.50;;;8.50;1.00;;;;;;4993467;28;20217;-60
2022/09/29 03:54:23;;;;;;;3.73;3.27;;;8.50;1.00;;;;;;4991236;28;20209;-59
2022/09/29 03:56:49;;;;;;;3.20;2.90;;;8.60;1.00;;;;;;4991587;28;20194;-60
2022/09/29 03:59:15;;;;;;;3.83;3.47;;;8.60;1.00;;;;;;4991997;28;20935;-59
2022/09/29 04:01:40;;;;;;;3.27;3.00;;;8.60;1.00;;;;;;4992075;28;20457;-58
2022/09/29 04:04:07;;;;;;;4.60;4.10;;;8.60;1.00;;;;;;4990910;28;20628;-59
2022/09/29 04:06:35;;;;;;;5.60;3.00;;;8.60;1.00;;;;;;5003989;28;20209;-60
2022/09/29 04:09:00;;;;;;;3.90;3.50;;;8.50;1.00;;;;;;4994903;28;20465;-62
2022/09/29 04:11:26;;;;;;;3.60;3.30;;;8.50;1.00;;;;;;4995049;28;20444;-58
2022/09/29 04:13:52;;;;;;;4.13;3.23;;;8.50;1.00;;;;;;4998111;28;20572;-60
2022/09/29 04:16:17;;;;;;;4.50;3.80;;;8.50;1.00;;;;;;4993928;28;20461;-59
2022/09/29 04:18:43;;;;;;;5.50;4.17;;;8.50;1.00;;;;;;4999069;28;20725;-59
2022/09/29 04:21:08;;;;;;;4.50;3.97;;;8.40;1.00;;;;;;5006338;28;20197;-58
2022/09/29 04:23:35;;;;;;;4.60;3.63;;;8.30;1.00;;;;;;5005362;28;20247;-59
2022/09/29 04:26:03;;;;;;;3.10;2.80;;;8.40;1.00;;;;;;4998430;28;20667;-59
2022/09/29 04:28:31;;;;;;;5.23;3.70;;;8.30;1.00;;;;;;4991455;28;20452;-57
2022/09/29 04:30:56;;;;;;;4.87;4.37;;;8.40;1.00;;;;;;4997949;28;20452;-59
2022/09/29 04:33:22;;;;;;;4.13;3.73;;;8.50;1.00;;;;;;4995874;28;20407;-59
2022/09/29 04:35:47;;;;;;;4.10;3.50;;;8.50;1.00;;;;;;4991703;28;20273;-60
2022/09/29 04:38:13;;;;;;;5.20;4.30;;;8.60;1.00;;;;;;4991308;28;20194;-59
2022/09/29 04:40:38;;;;;;;4.13;3.50;;;8.60;1.00;;;;;;5000707;28;20679;-59
2022/09/29 04:43:04;;;;;;;4.80;4.30;;;8.60;1.00;;;;;;4997557;28;20193;-60
2022/09/29 04:45:30;;;;;;;4.63;4.23;;;8.70;1.00;;;;;;4998889;28;20304;-60
2022/09/29 04:47:56;;;;;;;4.27;3.87;;;8.70;1.00;;;;;;5007511;28;20994;-58
2022/09/29 04:50:22;;;;;;;4.63;4.03;;;8.70;1.00;;;;;;4996555;28;20441;-59
2022/09/29 04:52:48;;;;;;;4.80;4.17;;;8.70;1.00;;;;;;4978061;28;20186;-59
2022/09/29 04:55:14;;;;;;;4.03;3.70;;;8.80;1.00;;;;;;4996910;28;20819;-59
2022/09/29 04:57:42;;;;;;;5.53;4.23;;;8.80;1.00;;;;;;4996275;28;20222;-60
2022/09/29 05:00:09;;;;;;;4.30;3.60;;;8.80;1.00;;;;;;4999536;28;20912;-60
2022/09/29 05:02:35;;;;;;;4.17;3.77;;;8.90;1.00;;;;;;4995882;28;20445;-60
2022/09/29 05:05:01;;;;;;;6.77;3.50;;;8.90;1.00;;;;;;4994558;28;20854;-58
2022/09/29 05:07:27;;;;;;;5.97;4.90;;;8.90;1.00;;;;;;4993268;28;20477;-58
2022/09/29 05:09:53;;;;;;;6.33;4.47;;;8.90;1.00;;;;;;4990207;28;20445;-58
2022/09/29 05:12:19;;;;;;;4.60;4.07;;;8.90;1.00;;;;;;4992812;28;20453;-59
2022/09/29 05:14:45;;;;;;;6.93;3.93;;;8.90;1.00;;;;;;4995438;28;20190;-60
2022/09/29 05:17:11;;;;;;;4.90;4.07;;;9.00;1.00;;;;;;5000792;28;20456;-60
2022/09/29 05:19:37;;;;;;;5.23;4.00;;;9.00;1.00;;;;;;4996544;28;20280;-59
2022/09/29 05:22:02;;;;;;;4.67;3.83;;;9.00;1.00;;;;;;4999598;28;20437;-59
2022/09/29 05:24:28;;;;;;;6.47;4.73;;;9.10;1.00;;;;;;4995751;28;20193;-59
2022/09/29 05:26:53;;;;;;;5.37;4.20;;;9.10;1.00;;;;;;4996353;28;20224;-59
2022/09/29 05:29:19;;;;;;;6.37;5.37;;;9.10;1.00;;;;;;4995922;28;20869;-60
2022/09/29 05:31:45;;;;;;;9.70;4.87;;;9.10;1.00;;;;;;4998592;28;20277;-59
2022/09/29 05:34:10;;;;;;;4.10;3.70;;;9.00;1.00;;;;;;4994168;28;20615;-59
2022/09/29 05:36:36;;;;;;;5.20;3.73;;;9.00;1.00;;;;;;5004933;28;20220;-59
2022/09/29 05:39:02;;;;;;;6.30;4.70;;;9.10;1.00;;;;;;4994935;28;20178;-59
2022/09/29 05:41:27;;;;;;;6.23;4.60;;;9.10;1.00;;;;;;5002977;28;20252;-59
2022/09/29 05:43:54;;;;;;;5.17;4.20;;;9.20;1.00;;;;;;4995943;28;20677;-59
2022/09/29 05:46:21;;;;;;;5.47;4.30;;;9.20;1.00;;;;;;5002909;28;20647;-60
2022/09/29 05:48:47;;;;;;;4.80;4.30;;;9.30;1.00;;;;;;4994595;28;20460;-59
2022/09/29 05:51:16;;;;;;;6.27;5.17;;;9.30;1.00;;;;;;4996789;28;20463;-60
2022/09/29 05:53:42;;;;;;;6.57;5.23;;;8.80;1.00;;;;;;4990560;28;20542;-60
2022/09/29 05:56:11;;;;;;;5.73;5.13;;;9.40;1.00;;;;;;4993234;28;20538;-60
2022/09/29 05:58:37;;;;;;;11.23;5.17;;;9.40;1.00;;;;;;4989865;28;20528;-60
2022/09/29 06:01:11;;;;;;;5.30;4.30;;;9.50;1.00;;;;;;4988585;28;20561;-60
2022/09/29 06:03:37;;;;;;;5.57;4.70;;;9.50;1.00;;;;;;5000371;28;20444;-59
2022/09/29 06:06:12;;;;;;;7.50;5.27;;;9.60;1.00;;;;;;4995033;28;20970;-59
2022/09/29 06:08:38;;;;;;;6.10;4.77;;;9.60;1.00;;;;;;4993350;28;20448;-60
2022/09/29 06:11:11;;;;;;;5.37;4.70;;;9.60;1.00;;;;;;4992379;28;20452;-61
2022/09/29 06:13:38;;;;;;;6.00;5.23;;;9.70;1.00;;;;;;4992967;28;20468;-61
2022/09/29 06:16:03;;;;;;;6.63;4.80;;;9.70;1.00;;;;;;4989460;28;20466;-60
2022/09/29 06:18:29;;;;;;;7.33;5.40;;;9.80;1.00;;;;;;4994849;28;20504;-60
2022/09/29 06:21:00;;;;;;;6.53;5.20;;;9.80;1.00;;;;;;4988776;28;20659;-60
2022/09/29 06:23:25;;;;;;;6.70;5.30;;;9.90;1.00;;;;;;4988122;28;20186;-60
2022/09/29 06:25:55;;;;;;;6.10;5.10;;;10.00;1.00;;;;;;4991132;28;20771;-60
2022/09/29 06:28:21;;;;;;;10.47;4.97;;;10.00;1.00;;;;;;4987221;28;20198;-60
2022/09/29 06:30:46;;;;;;;6.20;5.60;;;10.00;1.00;;;;;;4988662;28;20435;-59
2022/09/29 06:33:12;;;;;;;6.67;6.00;;;10.00;1.00;;;;;;4988248;28;20198;-59
2022/09/29 06:38:22;;;;;;;9.57;6.97;;;10.50;1.00;;;;;;4993435;28;20255;-60
2022/09/29 06:40:47;;;;;;;6.93;5.00;;;10.10;1.00;;;;;;4977343;28;20838;-59
2022/09/29 06:43:13;;;;;;;5.57;4.90;;;10.50;1.00;;;;;;4996758;28;20599;-58
2022/09/29 06:45:38;;;;;;;6.50;5.60;;;10.90;1.00;;;;;;4998529;28;20845;-59
2022/09/29 06:48:04;;;;;;;5.50;4.90;;;11.20;1.00;;;;;;4998536;28;20194;-59
2022/09/29 06:50:30;;;;;;;7.20;5.17;;;11.30;1.00;;;;;;4995041;28;20640;-59
2022/09/29 06:52:55;;;;;;;8.23;5.40;;;11.50;1.00;;;;;;5002116;28;20449;-58
2022/09/29 06:55:21;;;;;;;9.83;6.00;;;11.50;1.00;;;;;;4997523;28;20194;-59
2022/09/29 06:57:47;;;;;;;6.20;5.10;;;11.60;1.00;;;;;;4998992;28;20280;-59
2022/09/29 07:00:12;;;;;;;7.03;5.50;;;11.60;1.00;;;;;;5001293;28;20666;-59
2022/09/29 07:02:38;;;;;;;6.07;5.43;;;;;;;;;;4997794;28;20177;-59
2022/09/29 07:05:04;;;;;;;6.23;4.73;;;11.30;1.00;;;;;;5002401;28;20178;-59
2022/09/29 07:07:30;;;;;;;7.80;6.10;;;11.70;1.00;;;;;;4997762;28;20457;-59
2022/09/29 07:09:56;;;;;;;6.70;5.30;;;11.30;1.00;;;;;;5000392;28;20535;-58
2022/09/29 07:12:22;;;;;;;8.90;6.87;;;11.20;1.00;;;;;;4996061;28;20186;-58
2022/09/29 07:14:47;;;;;;;8.23;6.33;;;11.20;1.00;;;;;;5002878;28;20263;-58
2022/09/29 07:17:13;;;;;;;7.43;5.30;;;11.20;1.00;;;;;;5003120;28;20449;-59
2022/09/29 07:19:39;;;;;;;6.43;5.13;;;11.20;1.00;;;;;;4997360;28;20181;-59
2022/09/29 07:22:05;;;;;;;7.93;5.60;;;11.30;1.00;;;;;;5000498;28;20194;-58
2022/09/29 07:24:31;;;;;;;9.13;6.67;;;11.40;1.00;;;;;;5001361;28;20224;-59
2022/09/29 07:26:56;;;;;;;5.80;5.03;;;11.60;1.00;;;;;;4976645;28;20794;-58
2022/09/29 07:29:22;;;;;;;8.20;6.33;;;11.60;1.00;;;;;;5007391;28;20189;-59
2022/09/29 07:31:50;;;;;;;6.90;5.30;;;11.80;1.00;;;;;;4984058;28;20178;-59
2022/09/29 07:34:16;;;;;;;8.00;5.60;;;11.90;1.00;;;;;;4997894;28;20243;-59
2022/09/29 07:36:41;;;;;;;7.47;5.90;;;12.00;1.00;;;;;;5014602;28;20440;-59
2022/09/29 07:39:07;;;;;;;6.73;5.50;;;12.20;1.00;;;;;;5002270;28;20190;-59
2022/09/29 07:41:33;;;;;;;8.73;6.67;;;12.30;1.00;;;;;;5001274;28;20189;-59
2022/09/29 07:43:58;;;;;;;6.87;5.37;;;12.50;1.00;;;;;;4998542;28;20258;-59
2022/09/29 07:46:25;;;;;;;5.73;5.13;;;12.60;1.00;;;;;;5004446;28;20292;-59
2022/09/29 07:48:50;;;;;;;6.77;4.60;;;12.50;1.00;;;;;;5000189;28;20217;-59
2022/09/29 07:51:18;;;;;;;6.43;5.47;;;12.40;1.00;;;;;;4985897;28;20510;-59
2022/09/29 07:53:44;;;;;;;8.90;5.83;;;12.50;1.00;;;;;;4998799;28;20219;-59
2022/09/29 07:56:21;;;;;;;7.70;6.37;;;12.70;1.00;;;;;;4983525;28;20430;-58
2022/09/29 07:58:48;;;;;;;8.50;5.13;;;12.90;1.00;;;;;;5001217;28;20455;-59
2022/09/29 08:01:15;;;;;;;5.70;5.10;;;13.00;1.00;;;;;;4996820;28;20455;-60
2022/09/29 08:03:46;;;;;;;6.20;5.40;;;13.00;1.00;;;;;;4983924;28;20416;-58
2022/09/29 08:06:11;;;;;;;5.30;4.80;;;13.10;1.00;;;;;;5002868;28;20839;-60
2022/09/29 08:08:38;;;;;;;4.97;4.57;;;13.30;1.00;;;;;;4999081;28;20427;-58
2022/09/29 08:11:06;;;;;;;5.80;5.20;;;13.50;1.00;;;;;;4995966;28;20186;-59
2022/09/29 08:13:32;;;;;;;7.23;5.80;;;13.80;1.00;;;;;;4995527;28;20530;-58
2022/09/29 08:15:59;;;;;;;5.43;4.93;;;13.90;1.00;;;;;;4998437;28;20978;-60
2022/09/29 08:18:26;;;;;;;6.20;5.57;;;14.00;1.00;;;;;;4999988;28;20808;-59
2022/09/29 08:20:52;;;;;;;6.40;5.30;;;14.10;1.00;;;;;;5003082;28;20921;-59
2022/09/29 08:23:18;;;;;;;6.30;5.70;;;14.50;1.00;;;;;;5000204;28;20441;-58
2022/09/29 08:25:45;;;;;;;6.27;5.67;;;14.50;1.00;;;;;;4995599;28;20504;-59
2022/09/29 08:28:10;;;;;;;7.80;5.73;;;14.70;1.00;;;;;;5001455;28;20430;-61
2022/09/29 08:30:37;;;;;;;5.63;5.03;;;14.80;1.00;;;;;;4983314;28;20839;-59
2022/09/29 08:33:06;;;;;;;5.70;5.10;;;14.90;1.00;;;;;;4989422;28;20631;-58
2022/09/29 08:35:31;;;;;;;6.20;5.43;;;14.60;1.00;;;;;;4995845;28;20438;-58
2022/09/29 08:37:57;;;;;;;7.70;5.87;;;14.30;1.00;;;;;;4997448;28;20551;-58
2022/09/29 08:40:26;;;;;;;7.00;6.30;;;14.40;1.00;;;;;;5002114;28;20187;-59
2022/09/29 08:43:14;;;;;;;8.63;6.20;;;14.60;1.00;;;;;;5000057;28;20917;-59
2022/09/29 08:45:48;;;;;;;6.60;5.80;;;14.80;1.00;;;;;;4997638;28;20480;-59
2022/09/29 08:48:23;;;;;;;7.90;5.53;;;14.90;1.00;;;;;;4997340;28;20418;-58
2022/09/29 08:51:02;;;;;;;7.43;6.10;;;15.20;1.00;;;;;;5004485;28;20452;-59
2022/09/29 08:53:31;;;;;;;7.90;5.97;;;15.40;1.00;;;;;;4991824;28;20466;-58
2022/09/29 08:56:03;;;;;;;6.40;5.80;;;15.30;1.00;;;;;;4995667;28;20500;-59
2022/09/29 08:58:29;;;;;;;11.57;6.33;;;15.40;1.00;;;;;;5005705;28;20495;-59
2022/09/29 09:01:08;;;;;;;9.83;6.00;;;15.40;1.00;;;;;;4996866;28;20476;-59
2022/09/29 09:04:09;;;;;;;8.23;5.80;;;15.30;1.00;;;;;;5004292;28;20423;-59
2022/09/29 09:07:01;;;;;;;7.40;6.10;;;15.50;1.00;;;;;;5001408;28;20804;-59
2022/09/29 09:09:36;;;;;;;7.30;6.10;;;15.20;1.00;;;;;;5001103;28;20460;-58
2022/09/29 09:12:39;;;;;;;6.60;5.90;;;15.30;1.00;;;;;;5003819;28;20958;-58
2022/09/29 09:15:07;;;;;;;5.80;5.23;;;15.50;1.00;;;;;;5001304;28;20414;-59
2022/09/29 09:18:03;;;;;;;5.67;5.07;;;15.60;1.00;;;;;;5002791;28;20440;-59
2022/09/29 09:20:30;;;;;;;9.63;6.40;;;15.50;1.00;;;;;;5004525;28;20440;-59
2022/09/29 09:22:57;;;;;;;6.80;6.10;;;15.30;1.00;;;;;;4995602;28;20448;-59
2022/09/29 09:25:34;;;;;;;5.90;5.30;;;15.30;1.00;;;;;;5000354;28;20419;-59
2022/09/29 09:28:18;;;;;;;6.57;5.40;;;15.70;1.00;;;;;;4983654;28;20438;-59
2022/09/29 09:31:06;;;;;;;6.57;5.97;;;15.60;1.00;;;;;;5006295;28;20433;-58
2022/09/29 09:33:56;;;;;;;6.67;6.00;;;15.90;1.00;;;;;;4999192;28;20418;-58
2022/09/29 09:36:36;;;;;;;7.47;5.90;;;15.50;1.00;;;;;;4997854;28;20419;-59
2022/09/29 09:39:30;;;;;;;5.77;5.17;;;15.50;1.00;;;;;;5000856;28;20421;-58
2022/09/29 09:41:59;;;;;;;6.87;6.17;;;15.70;1.00;;;;;;5001496;28;20437;-58
2022/09/29 09:44:33;;;;;;;5.40;4.90;;;16.00;1.00;;;;;;4999574;28;20914;-58
2022/09/29 09:47:19;;;;;;;5.40;4.90;;;16.20;1.00;;;;;;5004728;28;20470;-61
2022/09/29 09:49:51;;;;;;;5.73;4.80;;;16.30;1.00;;;;;;5006159;28;20811;-58
2022/09/29 09:52:21;;;;;;;5.50;4.60;;;16.40;1.00;;;;;;5000151;28;20455;-58
2022/09/29 09:54:52;;;;;;;6.63;5.43;;;16.70;1.00;;;;;;5003548;28;20469;-59
2022/09/29 09:57:26;;;;;;;6.73;5.07;;;16.80;1.00;;;;;;4990424;28;20428;-59
2022/09/29 10:00:15;;;;;;;7.50;5.03;;;17.10;1.00;;;;;;4998788;28;20417;-59
2022/09/29 10:02:53;;;;;;;5.30;4.80;;;16.80;1.00;;;;;;4978483;28;20941;-58
2022/09/29 10:05:25;;;;;;;5.00;4.50;;;16.60;1.00;;;;;;4991265;28;20755;-59
2022/09/29 10:07:51;;;;;;;5.80;5.20;;;16.50;1.00;;;;;;5003706;28;20788;-59
2022/09/29 10:10:28;;;;;;;4.47;4.07;;;16.50;1.00;;;;;;4992691;28;20950;-59
2022/09/29 10:13:00;;;;;;;5.20;4.70;;;16.50;1.00;;;;;;4991881;28;20417;-59
2022/09/29 10:15:40;;;;;;;4.60;4.20;;;16.70;1.00;;;;;;4993049;28;21021;-59
2022/09/29 10:18:13;;;;;;;5.20;4.70;;;16.70;1.00;;;;;;5002442;28;20953;-59
2022/09/29 10:20:40;;;;;;;5.13;4.67;;;16.90;1.00;;;;;;5001811;28;20507;-58
2022/09/29 10:23:23;;;;;;;4.37;3.97;;;16.80;1.00;;;;;;5000670;28;20455;-58
2022/09/29 10:26:05;;;;;;;4.47;3.70;;;16.70;1.00;;;;;;5006074;28;20878;-59
2022/09/29 10:28:53;;;;;;;5.40;4.90;;;16.50;1.00;;;;;;4997432;28;20528;-60
2022/09/29 10:31:28;;;;;;;4.60;4.10;;;16.90;1.00;;;;;;5002092;28;20424;-59
2022/09/29 10:34:09;;;;;;;4.50;4.10;;;16.70;1.00;;;;;;4996664;28;20459;-59
2022/09/29 10:36:51;;;;;;;5.47;3.70;;;17.00;1.00;;;;;;4998214;28;21229;-59
2022/09/29 10:39:32;;;;;;;5.07;4.57;;;17.60;1.00;;;;;;5000153;28;20838;-58
2022/09/29 10:41:58;;;;;;;4.00;3.60;;;17.70;1.00;;;;;;4997624;28;20445;-58
2022/09/29 10:44:32;;;;;;;4.00;3.50;;;17.70;1.00;;;;;;4999310;28;20468;-58
2022/09/29 10:46:58;;;;;;;4.80;4.30;;;17.60;1.00;;;;;;5005619;28;20464;-59
2022/09/29 10:49:28;;;;;;;4.53;3.40;;;17.60;1.00;;;;;;5000340;28;20491;-59
2022/09/29 10:52:05;;;;;;;3.47;3.07;;;17.80;1.00;;;;;;5006023;28;20419;-58
2022/09/29 10:54:39;;;;;;;3.70;3.37;;;17.70;1.00;;;;;;4999156;28;20553;-59
2022/09/29 10:57:14;;;;;;;4.63;3.33;;;17.80;1.00;;;;;;5005234;28;20419;-58
2022/09/29 10:59:48;;;;;;;4.50;3.60;;;17.90;1.00;;;;;;4993271;28;20464;-61
2022/09/29 11:02:27;;;;;;;3.40;2.90;;;18.00;1.00;;;;;;4992779;28;20444;-62
2022/09/29 11:04:55;;;;;;;3.10;2.90;;;18.40;1.00;;;;;;4992284;28;20839;-60
2022/09/29 11:07:20;;;;;;;3.43;3.13;;;18.30;1.00;;;;;;4992205;28;20476;-60
2022/09/29 11:09:46;;;;;;;2.80;2.60;;;18.10;1.00;;;;;;4989573;28;20416;-59
2022/09/29 11:12:32;;;;;;;3.00;2.80;;;18.40;1.00;;;;;;4987135;28;20642;-61
2022/09/29 11:15:00;;;;;;;3.40;3.10;;;18.40;1.00;;;;;;4990159;28;20198;-60
2022/09/29 11:17:35;;;;;;;3.70;3.30;;;18.00;1.00;;;;;;4992000;28;20480;-61
2022/09/29 11:20:04;;;;;;;3.30;3.07;;;17.90;1.00;;;;;;4991249;28;20449;-59
2022/09/29 11:22:50;;;;;;;2.30;2.20;;;17.80;1.00;;;;;;4991685;28;20430;-60
2022/09/29 11:25:31;;;;;;;4.23;2.10;;;17.80;1.00;;;;;;4991288;28;20551;-61
2022/09/29 11:28:14;;;;;;;2.73;2.53;;;17.80;1.00;;;;;;4993997;28;20497;-60
2022/09/29 11:31:11;;;;;;;3.00;2.80;;;17.70;1.00;;;;;;4988395;28;20420;-61
2022/09/29 11:33:46;;;;;;;3.23;2.47;;;17.50;1.00;;;;;;4989769;28;20451;-61
2022/09/29 11:36:41;;;;;;;3.63;2.83;;;17.20;1.00;;;;;;4991408;28;20476;-61
2022/09/29 11:39:15;;;;;;;2.57;2.37;;;17.20;1.00;;;;;;4991576;28;20432;-62
2022/09/29 11:41:51;;;;;;;2.20;2.00;;;17.00;1.00;;;;;;4989580;28;20926;-60
2022/09/29 11:44:44;;;;;;;3.83;1.87;;;16.80;1.00;;;;;;4991162;28;20534;-60
2022/09/29 11:47:22;;;;;;;2.73;2.23;;;16.70;1.00;;;;;;5003002;28;20494;-61
2022/09/29 11:49:57;;;;;;;1.90;1.80;;;16.70;1.00;;;;;;4990728;28;20453;-60
2022/09/29 11:52:23;;;;;;;2.00;1.80;;;16.70;1.00;;;;;;4989984;28;20515;-60
2022/09/29 11:55:26;;;;;;;3.17;2.87;;;16.90;1.00;;;;;;4990740;28;20863;-61
2022/09/29 11:58:14;;;;;;;1.83;1.70;;;16.80;1.00;;;;;;4994166;28;20186;-61
2022/09/29 12:01:01;;;;;;;2.00;1.90;;;16.80;1.00;;;;;;4988957;28;20486;-61
2022/09/29 12:03:27;;;;;;;2.40;1.80;;;17.00;1.00;;;;;;4989646;28;20420;-61
2022/09/29 12:06:17;;;;;;;2.30;1.80;;;17.30;1.00;;;;;;4989270;28;20427;-61
2022/09/29 12:08:55;;;;;;;1.60;1.50;;;17.40;1.00;;;;;;4989217;28;20182;-61
2022/09/29 12:11:40;;;;;;;2.20;1.70;;;17.30;1.00;;;;;;4990991;28;20456;-60
2022/09/29 12:14:10;;;;;;;4.63;1.40;;;17.50;1.00;;;;;;4988851;28;20478;-61
2022/09/29 12:16:40;;;;;;;2.00;1.90;;;17.80;1.00;;;;;;4989499;28;20458;-61
2022/09/29 12:19:19;;;;;;;1.53;1.43;;;17.80;1.00;;;;;;4990232;28;20431;-59
2022/09/29 12:21:50;;;;;;;3.10;1.70;;;17.60;1.00;;;;;;4991419;28;20428;-61
2022/09/29 12:24:41;;;;;;;1.63;1.50;;;17.40;1.00;;;;;;4990373;28;20427;-62
2022/09/29 12:27:30;;;;;;;3.10;1.60;;;17.30;1.00;;;;;;4991901;28;20439;-61
2022/09/29 12:30:08;;;;;;;2.30;1.90;;;17.30;1.00;;;;;;4990570;28;20452;-60
2022/09/29 12:32:43;;;;;;;3.63;1.90;;;17.30;1.00;;;;;;4990512;28;20441;-61
2022/09/29 12:35:21;;;;;;;1.93;1.73;;;17.40;1.00;;;;;;4990356;28;20416;-61
2022/09/29 12:37:54;;;;;;;2.47;1.90;;;17.50;1.00;;;;;;4991409;28;20475;-60
2022/09/29 12:40:36;;;;;;;3.03;1.57;;;17.30;1.00;;;;;;4990983;28;20503;-62
2022/09/29 12:43:30;;;;;;;2.10;1.57;;;17.00;1.00;;;;;;4992538;28;20476;-61
2022/09/29 12:46:06;;;;;;;1.97;1.50;;;17.00;1.00;;;;;;4988778;28;20451;-61
2022/09/29 12:48:34;;;;;;;3.93;1.63;;;17.00;1.00;;;;;;4989819;28;20451;-62
2022/09/29 12:51:19;;;;;;;2.87;1.67;;;17.00;1.00;;;;;;4995280;28;20408;-61
2022/09/29 12:53:59;;;;;;;2.40;1.70;;;17.10;1.00;;;;;;4990360;28;20445;-61
2022/09/29 12:56:41;;;;;;;1.77;1.67;;;17.10;1.00;;;;;;4990831;28;20502;-61
2022/09/29 12:59:34;;;;;;;2.43;1.80;;;17.00;1.00;;;;;;4990707;28;20501;-61
2022/09/29 13:02:28;;;;;;;2.10;1.87;;;17.10;1.00;;;;;;4989030;28;20427;-60
2022/09/29 13:05:32;;;;;;;2.63;1.80;;;16.90;1.00;;;;;;4989116;28;20438;-61
2022/09/29 13:08:06;;;;;;;1.60;1.50;;;17.30;1.00;;;;;;4988226;28;20451;-60
2022/09/29 13:10:47;;;;;;;3.27;2.40;;;17.30;1.00;;;;;;4992087;28;20403;-60
2022/09/29 13:13:49;;;;;;;4.20;2.00;;;17.20;1.00;;;;;;4990552;28;21202;-62
2022/09/29 13:16:17;;;;;;;1.93;1.70;;;17.30;1.00;;;;;;4910014;29;20626;-61
2022/09/29 13:19:21;;;;;;;1.97;1.70;;;17.40;1.00;;;;;;4974065;28;20408;-61
2022/09/29 13:21:58;;;;;;;4.63;1.83;;;17.40;1.00;;;;;;4990109;28;20421;-61
2022/09/29 13:24:36;;;;;;;2.90;2.00;;;17.30;1.00;;;;;;4990568;28;20418;-62
2022/09/29 13:27:31;;;;;;;1.93;1.67;;;17.20;1.00;;;;;;4993146;28;20443;-60
2022/09/29 13:30:20;;;;;;;2.60;2.33;;;17.30;1.00;;;;;;4989231;28;20452;-61
2022/09/29 13:32:48;;;;;;;2.17;1.97;;;17.30;1.00;;;;;;4988897;28;21001;-61